PAS617 WAOO-WIII
Flight info
| Callsign | PAS617 |
|---|---|
| Flight time | 1h 25m |
| Altitude | 38000 |
| Route | DUNIA W18 AKSOX |
| Aircraft | A320/M-SDE3FGHIRWY/LB1 |
Departure
| Time | 2026-04-25 04:02 |
|---|---|
| Airport | Syamsudin Noor International Airport (WAOO) |
Arrival
| Time | 2026-04-25 05:27 |
|---|---|
| Airport | Soekarno-Hatta International Airport (WIII) |
| Time | Latitude | Longitude | Altitude | Speed | Heading |
|---|---|---|---|---|---|
| 2026-04-25 03:49 | -3.43823 | 114.75925 | 71 ft | 0 kts | 10° |
| 2026-04-25 03:52 | -3.43834 | 114.75923 | 71 ft | 2 kts | 9° |
| 2026-04-25 03:52 | -3.43849 | 114.75920 | 71 ft | 2 kts | 10° |
| 2026-04-25 03:52 | -3.43865 | 114.75918 | 71 ft | 2 kts | 10° |
| 2026-04-25 03:52 | -3.43877 | 114.75916 | 71 ft | 0 kts | 10° |
| 2026-04-25 03:53 | -3.43889 | 114.75915 | 71 ft | 2 kts | 342° |
| 2026-04-25 03:53 | -3.43902 | 114.75922 | 71 ft | 2 kts | 314° |
| 2026-04-25 03:53 | -3.43910 | 114.75934 | 71 ft | 0 kts | 284° |
| 2026-04-25 03:53 | -3.43911 | 114.75940 | 71 ft | 1 kts | 277° |
| 2026-04-25 03:54 | -3.43911 | 114.75942 | 71 ft | 0 kts | 279° |
| 2026-04-25 03:56 | -3.43910 | 114.75937 | 71 ft | 1 kts | 280° |
| 2026-04-25 03:56 | -3.43908 | 114.75922 | 71 ft | 2 kts | 280° |
| 2026-04-25 03:56 | -3.43904 | 114.75899 | 71 ft | 4 kts | 279° |
| 2026-04-25 03:57 | -3.43898 | 114.75867 | 71 ft | 5 kts | 279° |
| 2026-04-25 03:57 | -3.43892 | 114.75828 | 71 ft | 6 kts | 279° |
| 2026-04-25 03:57 | -3.43884 | 114.75781 | 71 ft | 7 kts | 279° |
| 2026-04-25 03:57 | -3.43884 | 114.75726 | 71 ft | 8 kts | 251° |
| 2026-04-25 03:58 | -3.43935 | 114.75697 | 71 ft | 9 kts | 191° |
| 2026-04-25 03:58 | -3.43998 | 114.75684 | 71 ft | 8 kts | 192° |
| 2026-04-25 03:58 | -3.44060 | 114.75671 | 71 ft | 9 kts | 192° |
| 2026-04-25 03:58 | -3.44110 | 114.75630 | 71 ft | 10 kts | 262° |
| 2026-04-25 03:59 | -3.44102 | 114.75556 | 71 ft | 11 kts | 281° |
| 2026-04-25 03:59 | -3.44085 | 114.75472 | 71 ft | 12 kts | 281° |
| 2026-04-25 03:59 | -3.44069 | 114.75380 | 71 ft | 13 kts | 279° |
| 2026-04-25 03:59 | -3.44050 | 114.75282 | 70 ft | 14 kts | 286° |
| 2026-04-25 04:00 | -3.44015 | 114.75214 | 70 ft | 8 kts | 294° |
| 2026-04-25 04:00 | -3.44023 | 114.75177 | 70 ft | 4 kts | 203° |
| 2026-04-25 04:00 | -3.44040 | 114.75198 | 70 ft | 5 kts | 85° |
| 2026-04-25 04:00 | -3.44041 | 114.75224 | 70 ft | 0 kts | 100° |
| 2026-04-25 04:01 | -3.44043 | 114.75234 | 70 ft | 9 kts | 100° |
| 2026-04-25 04:01 | -3.44099 | 114.75544 | 71 ft | 79 kts | 99° |
| 2026-04-25 04:01 | -3.44240 | 114.76289 | 71 ft | 137 kts | 98° |
| 2026-04-25 04:01 | -3.44440 | 114.77354 | 226 ft | 168 kts | 98° |
| 2026-04-25 04:02 | -3.44659 | 114.78500 | 742 ft | 170 kts | 97° |
| 2026-04-25 04:02 | -3.44903 | 114.79666 | 1302 ft | 173 kts | 109° |
| 2026-04-25 04:02 | -3.45692 | 114.80569 | 1789 ft | 180 kts | 146° |
| 2026-04-25 04:02 | -3.46845 | 114.81144 | 2129 ft | 193 kts | 153° |
| 2026-04-25 04:03 | -3.48105 | 114.81718 | 2393 ft | 204 kts | 152° |
| 2026-04-25 04:03 | -3.49417 | 114.82368 | 2596 ft | 213 kts | 150° |
| 2026-04-25 04:03 | -3.50761 | 114.83086 | 2771 ft | 227 kts | 149° |
| 2026-04-25 04:03 | -3.52192 | 114.83881 | 2979 ft | 241 kts | 148° |
| 2026-04-25 04:04 | -3.53700 | 114.84735 | 3247 ft | 255 kts | 148° |
| 2026-04-25 04:04 | -3.55296 | 114.85638 | 3515 ft | 267 kts | 150° |
| 2026-04-25 04:04 | -3.57120 | 114.86189 | 3819 ft | 280 kts | 178° |
| 2026-04-25 04:04 | -3.59009 | 114.85783 | 4330 ft | 284 kts | 207° |
| 2026-04-25 04:05 | -3.60524 | 114.84539 | 4882 ft | 284 kts | 234° |
| 2026-04-25 04:05 | -3.61313 | 114.82749 | 5262 ft | 286 kts | 259° |
| 2026-04-25 04:05 | -3.61673 | 114.80770 | 5589 ft | 287 kts | 261° |
| 2026-04-25 04:05 | -3.62024 | 114.78823 | 5966 ft | 288 kts | 260° |
| 2026-04-25 04:06 | -3.62398 | 114.76826 | 6388 ft | 290 kts | 260° |
| 2026-04-25 04:06 | -3.62783 | 114.74837 | 6808 ft | 292 kts | 260° |
| 2026-04-25 04:06 | -3.63173 | 114.72854 | 7227 ft | 294 kts | 260° |
| 2026-04-25 04:06 | -3.63573 | 114.70843 | 7681 ft | 296 kts | 259° |
| 2026-04-25 04:07 | -3.63976 | 114.68819 | 8192 ft | 295 kts | 259° |
| 2026-04-25 04:07 | -3.64374 | 114.66826 | 8710 ft | 293 kts | 259° |
| 2026-04-25 04:07 | -3.64772 | 114.64835 | 9245 ft | 292 kts | 259° |
| 2026-04-25 04:07 | -3.65169 | 114.62857 | 9740 ft | 290 kts | 259° |
| 2026-04-25 04:08 | -3.65568 | 114.60877 | 10163 ft | 291 kts | 258° |
| 2026-04-25 04:08 | -3.65974 | 114.58857 | 10593 ft | 303 kts | 258° |
| 2026-04-25 04:08 | -3.66400 | 114.56738 | 11022 ft | 317 kts | 259° |
| 2026-04-25 04:08 | -3.66842 | 114.54539 | 11381 ft | 330 kts | 259° |
| 2026-04-25 04:09 | -3.67301 | 114.52255 | 11636 ft | 341 kts | 259° |
| 2026-04-25 04:09 | -3.67776 | 114.49886 | 11887 ft | 352 kts | 259° |
| 2026-04-25 04:09 | -3.68265 | 114.47447 | 12150 ft | 360 kts | 259° |
| 2026-04-25 04:09 | -3.68767 | 114.44971 | 12484 ft | 366 kts | 257° |
| 2026-04-25 04:10 | -3.69525 | 114.42510 | 12899 ft | 369 kts | 248° |
| 2026-04-25 04:10 | -3.70650 | 114.40198 | 13207 ft | 370 kts | 239° |
| 2026-04-25 04:10 | -3.72002 | 114.38019 | 13498 ft | 372 kts | 237° |
| 2026-04-25 04:10 | -3.73417 | 114.35837 | 13778 ft | 373 kts | 236° |
| 2026-04-25 04:11 | -3.76242 | 114.31471 | 14353 ft | 376 kts | 237° |
| 2026-04-25 04:11 | -3.77666 | 114.29248 | 14627 ft | 378 kts | 237° |
| 2026-04-25 04:11 | -3.79086 | 114.27026 | 14903 ft | 380 kts | 237° |
| 2026-04-25 04:12 | -3.80509 | 114.24794 | 15190 ft | 382 kts | 237° |
| 2026-04-25 04:12 | -3.81942 | 114.22546 | 15488 ft | 383 kts | 237° |
| 2026-04-25 04:12 | -3.83370 | 114.20303 | 15782 ft | 386 kts | 237° |
| 2026-04-25 04:12 | -3.84828 | 114.18016 | 16061 ft | 387 kts | 237° |
| 2026-04-25 04:13 | -3.86280 | 114.15736 | 16348 ft | 388 kts | 237° |
| 2026-04-25 04:13 | -3.87724 | 114.13467 | 16628 ft | 390 kts | 237° |
| 2026-04-25 04:13 | -3.89187 | 114.11172 | 16906 ft | 392 kts | 237° |
| 2026-04-25 04:13 | -3.90665 | 114.08852 | 17186 ft | 394 kts | 237° |
| 2026-04-25 04:14 | -3.92127 | 114.06554 | 17469 ft | 395 kts | 236° |
| 2026-04-25 04:14 | -3.93620 | 114.04211 | 17752 ft | 397 kts | 237° |
| 2026-04-25 04:14 | -3.94890 | 114.01753 | 18027 ft | 400 kts | 249° |
| 2026-04-25 04:14 | -3.95587 | 113.99049 | 18337 ft | 403 kts | 262° |
| 2026-04-25 04:15 | -3.95745 | 113.96271 | 18713 ft | 405 kts | 269° |
| 2026-04-25 04:15 | -3.95763 | 113.93465 | 19104 ft | 406 kts | 270° |
| 2026-04-25 04:15 | -3.95767 | 113.90622 | 19476 ft | 408 kts | 270° |
| 2026-04-25 04:15 | -3.95777 | 113.87786 | 19811 ft | 409 kts | 270° |
| 2026-04-25 04:16 | -3.95798 | 113.84924 | 20138 ft | 411 kts | 270° |
| 2026-04-25 04:16 | -3.95825 | 113.82095 | 20465 ft | 413 kts | 270° |
| 2026-04-25 04:16 | -3.95856 | 113.79216 | 20800 ft | 415 kts | 270° |
| 2026-04-25 04:16 | -3.95890 | 113.76323 | 21128 ft | 417 kts | 270° |
| 2026-04-25 04:17 | -3.95926 | 113.73395 | 21458 ft | 419 kts | 270° |
| 2026-04-25 04:17 | -3.95961 | 113.70505 | 21772 ft | 421 kts | 270° |
| 2026-04-25 04:17 | -3.95998 | 113.67561 | 22074 ft | 423 kts | 270° |
| 2026-04-25 04:17 | -3.96034 | 113.64610 | 22371 ft | 424 kts | 270° |
| 2026-04-25 04:18 | -3.96072 | 113.61649 | 22647 ft | 427 kts | 270° |
| 2026-04-25 04:18 | -3.96108 | 113.58693 | 22934 ft | 429 kts | 270° |
| 2026-04-25 04:18 | -3.96145 | 113.55683 | 23236 ft | 431 kts | 270° |
| 2026-04-25 04:18 | -3.96182 | 113.52678 | 23530 ft | 432 kts | 270° |
| 2026-04-25 04:19 | -3.96218 | 113.49686 | 23841 ft | 434 kts | 270° |
| 2026-04-25 04:19 | -3.96256 | 113.46682 | 24132 ft | 436 kts | 270° |
| 2026-04-25 04:19 | -3.96293 | 113.43630 | 24428 ft | 437 kts | 270° |
| 2026-04-25 04:19 | -3.96331 | 113.40591 | 24717 ft | 439 kts | 270° |
| 2026-04-25 04:20 | -3.96369 | 113.37550 | 24984 ft | 441 kts | 270° |
| 2026-04-25 04:20 | -3.96406 | 113.34476 | 25248 ft | 442 kts | 270° |
| 2026-04-25 04:20 | -3.96443 | 113.31411 | 25496 ft | 444 kts | 270° |
| 2026-04-25 04:20 | -3.96482 | 113.28283 | 25763 ft | 446 kts | 270° |
| 2026-04-25 04:21 | -3.96521 | 113.25172 | 26035 ft | 447 kts | 270° |
| 2026-04-25 04:21 | -3.96558 | 113.22070 | 26290 ft | 449 kts | 270° |
| 2026-04-25 04:21 | -3.96596 | 113.18964 | 26523 ft | 451 kts | 269° |
| 2026-04-25 04:21 | -3.96785 | 113.15831 | 26737 ft | 453 kts | 263° |
| 2026-04-25 04:22 | -3.97314 | 113.12679 | 26994 ft | 454 kts | 257° |
| 2026-04-25 04:22 | -3.98156 | 113.09665 | 27237 ft | 454 kts | 252° |
| 2026-04-25 04:22 | -3.99175 | 113.06629 | 27436 ft | 456 kts | 251° |
| 2026-04-25 04:22 | -4.00211 | 113.03640 | 27644 ft | 458 kts | 251° |
| 2026-04-25 04:23 | -4.01257 | 113.00629 | 27880 ft | 459 kts | 251° |
| 2026-04-25 04:23 | -4.02309 | 112.97612 | 28150 ft | 460 kts | 251° |
| 2026-04-25 04:23 | -4.03341 | 112.94598 | 28375 ft | 462 kts | 251° |
| 2026-04-25 04:23 | -4.04392 | 112.91529 | 28600 ft | 463 kts | 251° |
| 2026-04-25 04:24 | -4.05425 | 112.88509 | 28821 ft | 465 kts | 251° |
| 2026-04-25 04:24 | -4.06482 | 112.85418 | 29024 ft | 466 kts | 251° |
| 2026-04-25 04:24 | -4.07530 | 112.82349 | 29219 ft | 468 kts | 251° |
| 2026-04-25 04:24 | -4.08591 | 112.79240 | 29406 ft | 470 kts | 251° |
| 2026-04-25 04:25 | -4.09636 | 112.76180 | 29573 ft | 472 kts | 251° |
| 2026-04-25 04:25 | -4.10709 | 112.73037 | 29759 ft | 473 kts | 251° |
| 2026-04-25 04:25 | -4.11761 | 112.69953 | 29923 ft | 475 kts | 251° |
| 2026-04-25 04:25 | -4.12833 | 112.66805 | 30079 ft | 477 kts | 251° |
| 2026-04-25 04:26 | -4.13901 | 112.63673 | 30261 ft | 478 kts | 251° |
| 2026-04-25 04:26 | -4.14982 | 112.60500 | 30488 ft | 478 kts | 251° |
| 2026-04-25 04:26 | -4.16043 | 112.57388 | 30744 ft | 477 kts | 252° |
| 2026-04-25 04:26 | -4.17116 | 112.54240 | 30975 ft | 476 kts | 252° |
| 2026-04-25 04:27 | -4.18180 | 112.51119 | 31185 ft | 477 kts | 252° |
| 2026-04-25 04:27 | -4.19254 | 112.47964 | 31397 ft | 477 kts | 252° |
| 2026-04-25 04:27 | -4.20321 | 112.44832 | 31620 ft | 477 kts | 252° |
| 2026-04-25 04:27 | -4.21385 | 112.41708 | 31860 ft | 477 kts | 252° |
| 2026-04-25 04:28 | -4.22467 | 112.38533 | 32087 ft | 477 kts | 252° |
| 2026-04-25 04:28 | -4.23529 | 112.35416 | 32317 ft | 477 kts | 252° |
| 2026-04-25 04:28 | -4.24601 | 112.32266 | 32543 ft | 477 kts | 252° |
| 2026-04-25 04:28 | -4.25677 | 112.29108 | 32775 ft | 478 kts | 252° |
| 2026-04-25 04:29 | -4.26753 | 112.25943 | 33036 ft | 477 kts | 252° |
| 2026-04-25 04:29 | -4.27817 | 112.22818 | 33345 ft | 475 kts | 252° |
| 2026-04-25 04:29 | -4.28881 | 112.19692 | 33667 ft | 474 kts | 252° |
| 2026-04-25 04:29 | -4.29934 | 112.16595 | 33999 ft | 472 kts | 252° |
| 2026-04-25 04:30 | -4.30993 | 112.13483 | 34317 ft | 470 kts | 252° |
| 2026-04-25 04:30 | -4.32040 | 112.10406 | 34626 ft | 468 kts | 252° |
| 2026-04-25 04:30 | -4.33086 | 112.07331 | 34889 ft | 467 kts | 252° |
| 2026-04-25 04:30 | -4.34122 | 112.04285 | 35155 ft | 466 kts | 252° |
| 2026-04-25 04:31 | -4.35160 | 112.01234 | 35395 ft | 464 kts | 252° |
| 2026-04-25 04:31 | -4.36203 | 111.98167 | 35601 ft | 464 kts | 252° |
| 2026-04-25 04:31 | -4.37236 | 111.95127 | 35793 ft | 464 kts | 252° |
| 2026-04-25 04:31 | -4.38274 | 111.92072 | 35981 ft | 463 kts | 252° |
| 2026-04-25 04:32 | -4.39310 | 111.89020 | 36158 ft | 463 kts | 252° |
| 2026-04-25 04:32 | -4.40352 | 111.85951 | 36344 ft | 463 kts | 252° |
| 2026-04-25 04:32 | -4.41387 | 111.82905 | 36492 ft | 463 kts | 252° |
| 2026-04-25 04:33 | -4.43444 | 111.76850 | 36134 ft | 460 kts | 252° |
| 2026-04-25 04:33 | -4.44482 | 111.73792 | 35880 ft | 467 kts | 252° |
| 2026-04-25 04:33 | -4.45532 | 111.70699 | 35878 ft | 471 kts | 252° |
| 2026-04-25 04:34 | -4.47640 | 111.64489 | 35880 ft | 474 kts | 252° |
| 2026-04-25 04:34 | -4.49765 | 111.58226 | 35878 ft | 475 kts | 252° |
| 2026-04-25 04:35 | -4.51880 | 111.51995 | 35870 ft | 475 kts | 252° |
| 2026-04-25 04:35 | -4.54005 | 111.45730 | 35866 ft | 475 kts | 252° |
| 2026-04-25 04:36 | -4.56123 | 111.39485 | 35863 ft | 474 kts | 252° |
| 2026-04-25 04:36 | -4.58233 | 111.33260 | 35860 ft | 474 kts | 252° |
| 2026-04-25 04:37 | -4.60353 | 111.27008 | 35858 ft | 474 kts | 252° |
| 2026-04-25 04:37 | -4.62444 | 111.20783 | 35856 ft | 474 kts | 253° |
| 2026-04-25 04:38 | -4.64468 | 111.14480 | 35857 ft | 474 kts | 253° |
| 2026-04-25 04:38 | -4.66478 | 111.08206 | 35856 ft | 473 kts | 253° |
| 2026-04-25 04:39 | -4.68483 | 111.01970 | 35856 ft | 473 kts | 253° |
| 2026-04-25 04:39 | -4.70506 | 110.95686 | 35857 ft | 472 kts | 253° |
| 2026-04-25 04:40 | -4.72523 | 110.89417 | 35857 ft | 472 kts | 253° |
| 2026-04-25 04:40 | -4.74521 | 110.83208 | 35857 ft | 472 kts | 253° |
| 2026-04-25 04:41 | -4.76536 | 110.76949 | 35858 ft | 473 kts | 253° |
| 2026-04-25 04:41 | -4.78556 | 110.70670 | 35857 ft | 473 kts | 253° |
| 2026-04-25 04:42 | -4.80568 | 110.64407 | 35857 ft | 473 kts | 253° |
| 2026-04-25 04:42 | -4.82579 | 110.58148 | 35857 ft | 473 kts | 253° |
| 2026-04-25 04:43 | -4.84594 | 110.51883 | 35857 ft | 472 kts | 253° |
| 2026-04-25 04:43 | -4.86608 | 110.45614 | 35857 ft | 473 kts | 253° |
| 2026-04-25 04:44 | -4.88600 | 110.39328 | 35855 ft | 472 kts | 254° |
| 2026-04-25 04:44 | -4.90510 | 110.33069 | 35857 ft | 473 kts | 254° |
| 2026-04-25 04:45 | -4.92439 | 110.26744 | 35859 ft | 473 kts | 254° |
| 2026-04-25 04:45 | -4.94357 | 110.20479 | 35865 ft | 473 kts | 254° |
| 2026-04-25 04:46 | -4.96294 | 110.14153 | 35874 ft | 474 kts | 254° |
| 2026-04-25 04:46 | -4.98217 | 110.07869 | 35876 ft | 474 kts | 254° |
| 2026-04-25 04:47 | -5.00143 | 110.01569 | 35878 ft | 474 kts | 254° |
| 2026-04-25 04:47 | -5.02075 | 109.95257 | 35879 ft | 474 kts | 254° |
| 2026-04-25 04:48 | -5.03995 | 109.88977 | 35878 ft | 473 kts | 254° |
| 2026-04-25 04:48 | -5.05924 | 109.82668 | 35880 ft | 473 kts | 254° |
| 2026-04-25 04:49 | -5.07855 | 109.76353 | 35877 ft | 474 kts | 254° |
| 2026-04-25 04:49 | -5.09771 | 109.70079 | 35870 ft | 473 kts | 254° |
| 2026-04-25 04:50 | -5.11702 | 109.63756 | 35868 ft | 473 kts | 254° |
| 2026-04-25 04:50 | -5.13628 | 109.57443 | 35869 ft | 473 kts | 254° |
| 2026-04-25 04:51 | -5.15540 | 109.51173 | 35867 ft | 473 kts | 254° |
| 2026-04-25 04:51 | -5.17457 | 109.44891 | 35864 ft | 473 kts | 254° |
| 2026-04-25 04:52 | -5.19377 | 109.38593 | 35861 ft | 473 kts | 254° |
| 2026-04-25 04:52 | -5.21297 | 109.32295 | 35859 ft | 472 kts | 254° |
| 2026-04-25 04:53 | -5.23217 | 109.25993 | 35859 ft | 473 kts | 254° |
| 2026-04-25 04:53 | -5.25126 | 109.19727 | 35859 ft | 472 kts | 254° |
| 2026-04-25 04:54 | -5.27046 | 109.13426 | 35859 ft | 472 kts | 254° |
| 2026-04-25 04:54 | -5.28967 | 109.07127 | 35858 ft | 472 kts | 254° |
| 2026-04-25 04:55 | -5.30942 | 109.00866 | 35858 ft | 473 kts | 252° |
| 2026-04-25 04:55 | -5.33022 | 108.94627 | 35858 ft | 472 kts | 252° |
| 2026-04-25 04:56 | -5.35094 | 108.88397 | 35858 ft | 472 kts | 252° |
| 2026-04-25 04:56 | -5.37159 | 108.82166 | 35858 ft | 472 kts | 252° |
| 2026-04-25 04:57 | -5.39210 | 108.75947 | 35858 ft | 472 kts | 252° |
| 2026-04-25 04:57 | -5.41270 | 108.69698 | 35857 ft | 473 kts | 252° |
| 2026-04-25 04:58 | -5.43324 | 108.63470 | 35858 ft | 472 kts | 252° |
| 2026-04-25 04:58 | -5.45391 | 108.57206 | 35858 ft | 471 kts | 252° |
| 2026-04-25 04:59 | -5.47443 | 108.50987 | 35858 ft | 472 kts | 252° |
| 2026-04-25 04:59 | -5.49495 | 108.44762 | 35857 ft | 471 kts | 253° |
| 2026-04-25 05:00 | -5.51557 | 108.38503 | 35858 ft | 471 kts | 252° |
| 2026-04-25 05:00 | -5.53858 | 108.32355 | 35855 ft | 472 kts | 245° |
| 2026-04-25 05:01 | -5.57328 | 108.26782 | 35857 ft | 473 kts | 232° |
| 2026-04-25 05:01 | -5.59466 | 108.24340 | 35756 ft | 470 kts | 226° |
| 2026-04-25 05:01 | -5.61900 | 108.22094 | 35370 ft | 473 kts | 219° |
| 2026-04-25 05:01 | -5.64537 | 108.20129 | 34973 ft | 474 kts | 214° |
| 2026-04-25 05:02 | -5.67273 | 108.18260 | 34573 ft | 474 kts | 213° |
| 2026-04-25 05:02 | -5.69990 | 108.16434 | 34179 ft | 474 kts | 213° |
| 2026-04-25 05:02 | -5.72738 | 108.14581 | 33781 ft | 474 kts | 213° |
| 2026-04-25 05:02 | -5.75473 | 108.12726 | 33385 ft | 475 kts | 213° |
| 2026-04-25 05:03 | -5.78208 | 108.10862 | 32990 ft | 476 kts | 213° |
| 2026-04-25 05:03 | -5.80955 | 108.08985 | 32598 ft | 477 kts | 213° |
| 2026-04-25 05:03 | -5.83698 | 108.07108 | 32234 ft | 478 kts | 213° |
| 2026-04-25 05:03 | -5.86472 | 108.05212 | 31867 ft | 478 kts | 213° |
| 2026-04-25 05:04 | -5.89209 | 108.03338 | 31542 ft | 478 kts | 213° |
| 2026-04-25 05:04 | -5.91945 | 108.01447 | 31259 ft | 472 kts | 216° |
| 2026-04-25 05:04 | -5.94262 | 107.99172 | 31057 ft | 464 kts | 233° |
| 2026-04-25 05:04 | -5.95743 | 107.96305 | 30865 ft | 467 kts | 251° |
| 2026-04-25 05:05 | -5.96314 | 107.93117 | 30295 ft | 466 kts | 268° |
| 2026-04-25 05:05 | -5.96290 | 107.89890 | 29711 ft | 462 kts | 271° |
| 2026-04-25 05:05 | -5.96229 | 107.86691 | 29120 ft | 458 kts | 270° |
| 2026-04-25 05:05 | -5.96185 | 107.83517 | 28530 ft | 454 kts | 270° |
| 2026-04-25 05:06 | -5.96161 | 107.80398 | 27974 ft | 450 kts | 269° |
| 2026-04-25 05:06 | -5.96154 | 107.77290 | 27416 ft | 446 kts | 269° |
| 2026-04-25 05:06 | -5.96154 | 107.74192 | 26854 ft | 441 kts | 270° |
| 2026-04-25 05:06 | -5.96155 | 107.71145 | 26297 ft | 437 kts | 270° |
| 2026-04-25 05:07 | -5.96156 | 107.68103 | 25737 ft | 434 kts | 270° |
| 2026-04-25 05:07 | -5.96155 | 107.65076 | 25176 ft | 430 kts | 270° |
| 2026-04-25 05:07 | -5.96154 | 107.62096 | 24620 ft | 427 kts | 270° |
| 2026-04-25 05:07 | -5.96153 | 107.59148 | 24067 ft | 424 kts | 270° |
| 2026-04-25 05:08 | -5.96153 | 107.56178 | 23508 ft | 422 kts | 271° |
| 2026-04-25 05:08 | -5.96154 | 107.53279 | 22961 ft | 419 kts | 271° |
| 2026-04-25 05:08 | -5.96155 | 107.50382 | 22413 ft | 416 kts | 271° |
| 2026-04-25 05:08 | -5.96156 | 107.47470 | 21874 ft | 414 kts | 271° |
| 2026-04-25 05:09 | -5.96155 | 107.44565 | 21341 ft | 412 kts | 271° |
| 2026-04-25 05:09 | -5.96154 | 107.41733 | 20815 ft | 408 kts | 271° |
| 2026-04-25 05:09 | -5.96155 | 107.38866 | 20277 ft | 406 kts | 271° |
| 2026-04-25 05:09 | -5.96155 | 107.36084 | 19747 ft | 397 kts | 271° |
| 2026-04-25 05:10 | -5.96155 | 107.33379 | 19206 ft | 386 kts | 271° |
| 2026-04-25 05:10 | -5.96154 | 107.30717 | 18672 ft | 378 kts | 271° |
| 2026-04-25 05:10 | -5.96148 | 107.28091 | 18149 ft | 376 kts | 271° |
| 2026-04-25 05:10 | -5.96141 | 107.25464 | 17724 ft | 372 kts | 271° |
| 2026-04-25 05:11 | -5.96136 | 107.22871 | 17302 ft | 370 kts | 271° |
| 2026-04-25 05:11 | -5.96132 | 107.20309 | 16879 ft | 366 kts | 271° |
| 2026-04-25 05:11 | -5.96127 | 107.17779 | 16458 ft | 364 kts | 271° |
| 2026-04-25 05:12 | -5.96120 | 107.12741 | 15614 ft | 360 kts | 271° |
| 2026-04-25 05:12 | -5.96115 | 107.10218 | 15185 ft | 358 kts | 271° |
| 2026-04-25 05:12 | -5.96110 | 107.07750 | 14758 ft | 356 kts | 271° |
| 2026-04-25 05:12 | -5.96106 | 107.05263 | 14337 ft | 354 kts | 271° |
| 2026-04-25 05:13 | -5.96101 | 107.02813 | 13911 ft | 352 kts | 271° |
| 2026-04-25 05:13 | -5.96094 | 107.00375 | 13502 ft | 348 kts | 271° |
| 2026-04-25 05:13 | -5.96086 | 106.97960 | 13128 ft | 345 kts | 271° |
| 2026-04-25 05:13 | -5.96080 | 106.95579 | 12756 ft | 344 kts | 271° |
| 2026-04-25 05:14 | -5.96082 | 106.93165 | 12360 ft | 342 kts | 271° |
| 2026-04-25 05:14 | -5.96075 | 106.90803 | 11953 ft | 339 kts | 271° |
| 2026-04-25 05:14 | -5.96072 | 106.88432 | 11591 ft | 337 kts | 271° |
| 2026-04-25 05:15 | -5.96060 | 106.83776 | 10827 ft | 334 kts | 271° |
| 2026-04-25 05:15 | -5.96055 | 106.81441 | 10399 ft | 329 kts | 271° |
| 2026-04-25 05:15 | -5.96113 | 106.79195 | 10000 ft | 321 kts | 263° |
| 2026-04-25 05:15 | -5.96683 | 106.77076 | 9618 ft | 311 kts | 249° |
| 2026-04-25 05:16 | -5.97492 | 106.75082 | 9263 ft | 301 kts | 247° |
| 2026-04-25 05:16 | -5.98297 | 106.73180 | 8876 ft | 294 kts | 247° |
| 2026-04-25 05:16 | -5.99086 | 106.71296 | 8493 ft | 292 kts | 248° |
| 2026-04-25 05:16 | -5.99858 | 106.69429 | 8173 ft | 291 kts | 248° |
| 2026-04-25 05:17 | -6.00625 | 106.67556 | 7946 ft | 288 kts | 248° |
| 2026-04-25 05:17 | -6.01359 | 106.65745 | 7710 ft | 284 kts | 248° |
| 2026-04-25 05:17 | -6.02107 | 106.63895 | 7467 ft | 281 kts | 248° |
| 2026-04-25 05:17 | -6.02836 | 106.62084 | 7151 ft | 277 kts | 248° |
| 2026-04-25 05:18 | -6.03556 | 106.60306 | 6761 ft | 269 kts | 248° |
| 2026-04-25 05:18 | -6.04241 | 106.58609 | 6373 ft | 258 kts | 248° |
| 2026-04-25 05:18 | -6.04899 | 106.56980 | 5997 ft | 249 kts | 248° |
| 2026-04-25 05:18 | -6.05547 | 106.55377 | 5567 ft | 244 kts | 248° |
| 2026-04-25 05:19 | -6.06175 | 106.53825 | 5185 ft | 239 kts | 248° |
| 2026-04-25 05:19 | -6.06808 | 106.52264 | 4816 ft | 243 kts | 248° |
| 2026-04-25 05:19 | -6.07449 | 106.50683 | 4460 ft | 247 kts | 248° |
| 2026-04-25 05:19 | -6.08104 | 106.49057 | 4149 ft | 250 kts | 247° |
| 2026-04-25 05:20 | -6.08759 | 106.47435 | 3877 ft | 250 kts | 248° |
| 2026-04-25 05:20 | -6.09406 | 106.45836 | 3607 ft | 248 kts | 247° |
| 2026-04-25 05:20 | -6.10048 | 106.44238 | 3338 ft | 246 kts | 248° |
| 2026-04-25 05:20 | -6.10736 | 106.42664 | 3100 ft | 241 kts | 236° |
| 2026-04-25 05:21 | -6.11951 | 106.41607 | 2830 ft | 228 kts | 195° |
| 2026-04-25 05:21 | -6.13454 | 106.41591 | 2599 ft | 210 kts | 157° |
| 2026-04-25 05:21 | -6.14780 | 106.42133 | 2377 ft | 200 kts | 155° |
| 2026-04-25 05:21 | -6.16065 | 106.42596 | 2253 ft | 197 kts | 159° |
| 2026-04-25 05:22 | -6.17374 | 106.43044 | 2029 ft | 194 kts | 149° |
| 2026-04-25 05:22 | -6.18172 | 106.44043 | 1981 ft | 189 kts | 103° |
| 2026-04-25 05:22 | -6.18221 | 106.45375 | 2007 ft | 190 kts | 88° |
| 2026-04-25 05:22 | -6.18175 | 106.46699 | 1995 ft | 190 kts | 88° |
| 2026-04-25 05:23 | -6.18082 | 106.48007 | 1991 ft | 190 kts | 82° |
| 2026-04-25 05:23 | -6.17797 | 106.49312 | 1983 ft | 185 kts | 74° |
| 2026-04-25 05:23 | -6.17401 | 106.50515 | 1979 ft | 180 kts | 71° |
| 2026-04-25 05:23 | -6.16963 | 106.51678 | 1982 ft | 180 kts | 69° |
| 2026-04-25 05:24 | -6.16519 | 106.52808 | 1962 ft | 163 kts | 69° |
| 2026-04-25 05:24 | -6.16121 | 106.53807 | 1950 ft | 149 kts | 69° |
| 2026-04-25 05:24 | -6.15733 | 106.54774 | 1859 ft | 149 kts | 69° |
| 2026-04-25 05:24 | -6.15345 | 106.55746 | 1692 ft | 147 kts | 69° |
| 2026-04-25 05:25 | -6.14969 | 106.56691 | 1500 ft | 147 kts | 69° |
| 2026-04-25 05:25 | -6.14587 | 106.57652 | 1308 ft | 146 kts | 69° |
| 2026-04-25 05:25 | -6.14216 | 106.58582 | 1120 ft | 143 kts | 69° |
| 2026-04-25 05:25 | -6.13857 | 106.59480 | 925 ft | 132 kts | 69° |
| 2026-04-25 05:26 | -6.13517 | 106.60333 | 766 ft | 132 kts | 69° |
| 2026-04-25 05:26 | -6.13166 | 106.61195 | 608 ft | 132 kts | 68° |
| 2026-04-25 05:26 | -6.12839 | 106.62047 | 451 ft | 132 kts | 68° |
| 2026-04-25 05:26 | -6.12502 | 106.62907 | 268 ft | 131 kts | 68° |
| 2026-04-25 05:27 | -6.12158 | 106.63751 | 101 ft | 131 kts | 67° |
| 2026-04-25 05:27 | -6.11825 | 106.64576 | 47 ft | 117 kts | 68° |
| 2026-04-25 05:27 | -6.11583 | 106.65184 | 47 ft | 68 kts | 68° |
| 2026-04-25 05:27 | -6.11465 | 106.65483 | 47 ft | 32 kts | 69° |
| 2026-04-25 05:28 | -6.11417 | 106.65662 | 47 ft | 20 kts | 87° |
| 2026-04-25 05:28 | -6.11427 | 106.65801 | 47 ft | 19 kts | 98° |
| 2026-04-25 05:28 | -6.11474 | 106.65880 | 47 ft | 12 kts | 121° |
| 2026-04-25 05:28 | -6.11468 | 106.65962 | 47 ft | 12 kts | 68° |
| 2026-04-25 05:29 | -6.11435 | 106.66045 | 47 ft | 12 kts | 67° |
| 2026-04-25 05:29 | -6.11401 | 106.66129 | 47 ft | 13 kts | 68° |
| 2026-04-25 05:29 | -6.11367 | 106.66215 | 47 ft | 13 kts | 69° |
| 2026-04-25 05:29 | -6.11331 | 106.66306 | 46 ft | 14 kts | 68° |
| 2026-04-25 05:30 | -6.11294 | 106.66399 | 46 ft | 14 kts | 68° |
| 2026-04-25 05:30 | -6.11255 | 106.66496 | 46 ft | 15 kts | 68° |
| 2026-04-25 05:30 | -6.11215 | 106.66595 | 46 ft | 15 kts | 68° |
| 2026-04-25 05:30 | -6.11175 | 106.66696 | 46 ft | 15 kts | 68° |
| 2026-04-25 05:31 | -6.11141 | 106.66791 | 47 ft | 11 kts | 82° |
| 2026-04-25 05:31 | -6.11180 | 106.66853 | 46 ft | 11 kts | 132° |
| 2026-04-25 05:31 | -6.11180 | 106.66929 | 46 ft | 12 kts | 69° |
| 2026-04-25 05:31 | -6.11150 | 106.67011 | 46 ft | 12 kts | 72° |
| 2026-04-25 05:32 | -6.11127 | 106.67100 | 46 ft | 13 kts | 76° |
| 2026-04-25 05:32 | -6.11104 | 106.67194 | 46 ft | 14 kts | 76° |
| 2026-04-25 05:32 | -6.11085 | 106.67289 | 46 ft | 13 kts | 88° |
| 2026-04-25 05:32 | -6.11121 | 106.67368 | 46 ft | 12 kts | 142° |
| 2026-04-25 05:33 | -6.11193 | 106.67364 | 46 ft | 11 kts | 228° |
| 2026-04-25 05:33 | -6.11226 | 106.67293 | 46 ft | 11 kts | 249° |
| 2026-04-25 05:33 | -6.11258 | 106.67222 | 46 ft | 11 kts | 232° |
| 2026-04-25 05:33 | -6.11325 | 106.67211 | 46 ft | 10 kts | 159° |
| 2026-04-25 05:34 | -6.11391 | 106.67236 | 46 ft | 9 kts | 160° |
| 2026-04-25 05:34 | -6.11453 | 106.67260 | 46 ft | 9 kts | 159° |
| 2026-04-25 05:34 | -6.11490 | 106.67253 | 46 ft | 5 kts | 236° |
| 2026-04-25 05:34 | -6.11507 | 106.67216 | 47 ft | 3 kts | 246° |
| 2026-04-25 05:35 | -6.11510 | 106.67208 | 47 ft | 0 kts | 248° |
| 2026-04-25 05:35 | -6.11511 | 106.67206 | 47 ft | 0 kts | 249° |